Time;durP1;ratioP1;P1;durP2;ratioP2;P2;SDS_P1;SDS_P2;PMS_P1;PMS_P2;Temp;Humidity;BMP_temperature;BMP_pressure;BME280_temperature;BME280_humidity;BME280_pressure;Samples;Min_cycle;Max_cycle;Signal;HPM_P1;HPM_P2
2022/09/16 00:00:53;;;;;;;21.40;20.20;;;15.50;86.90;;;;;;5064621;28;20558;-73
2022/09/16 00:03:20;;;;;;;22.83;21.50;;;15.60;86.80;;;;;;5064748;28;20506;-72
2022/09/16 00:05:50;;;;;;;23.77;22.10;;;15.50;86.80;;;;;;5065733;28;20813;-73
2022/09/16 00:08:20;;;;;;;21.83;20.50;;;15.60;86.60;;;;;;5067601;28;20462;-73
2022/09/16 00:10:49;;;;;;;21.03;19.73;;;15.70;86.30;;;;;;5062949;28;20803;-73
2022/09/16 00:13:16;;;;;;;21.03;19.93;;;15.60;86.30;;;;;;5066894;28;20469;-72
2022/09/16 00:15:43;;;;;;;22.30;21.20;;;15.60;86.50;;;;;;5066181;28;20465;-72
2022/09/16 00:18:11;;;;;;;21.80;20.60;;;15.60;86.60;;;;;;5065658;28;20457;-77
2022/09/16 00:20:42;;;;;;;23.40;22.13;;;15.60;86.50;;;;;;5063957;28;20462;-74
2022/09/16 00:23:09;;;;;;;22.17;20.97;;;15.60;86.50;;;;;;5064648;28;20474;-76
2022/09/16 00:25:37;;;;;;;22.67;21.43;;;15.60;86.50;;;;;;5065190;28;20820;-72
2022/09/16 00:28:04;;;;;;;22.60;21.50;;;15.70;86.30;;;;;;5067824;28;20794;-72
2022/09/16 00:30:31;;;;;;;23.30;21.97;;;15.70;86.50;;;;;;5063865;28;20458;-74
2022/09/16 00:32:58;;;;;;;23.20;22.10;;;15.70;86.70;;;;;;5066190;28;20848;-74
2022/09/16 00:35:25;;;;;;;22.60;21.40;;;15.60;86.70;;;;;;5065312;28;20900;-74
2022/09/16 00:37:52;;;;;;;22.43;21.30;;;15.60;86.80;;;;;;5066388;28;20442;-74
2022/09/16 00:40:19;;;;;;;23.13;21.70;;;15.60;86.90;;;;;;5066717;28;20944;-72
2022/09/16 00:42:47;;;;;;;22.77;21.37;;;15.60;87.20;;;;;;5068717;28;20481;-73
2022/09/16 00:45:16;;;;;;;23.93;22.43;;;15.50;87.30;;;;;;5063788;28;20457;-71
2022/09/16 00:47:49;;;;;;;23.30;22.00;;;15.50;87.40;;;;;;5067204;28;20474;-72
2022/09/16 00:50:22;;;;;;;22.63;21.40;;;15.50;87.70;;;;;;5063485;28;21236;-72
2022/09/16 00:52:50;;;;;;;22.70;21.40;;;15.50;87.80;;;;;;5079014;28;20484;-72
2022/09/16 00:55:21;;;;;;;23.13;21.63;;;15.40;87.90;;;;;;5066714;28;20462;-73
2022/09/16 00:57:50;;;;;;;22.10;20.63;;;15.50;87.80;;;;;;5068952;28;20462;-72
2022/09/16 01:00:17;;;;;;;21.30;20.10;;;15.50;87.80;;;;;;5067048;28;20470;-73
2022/09/16 01:02:45;;;;;;;21.17;19.97;;;15.40;87.80;;;;;;5070632;28;20478;-73
2022/09/16 01:05:16;;;;;;;21.60;20.40;;;15.40;87.90;;;;;;5064697;28;20461;-72
2022/09/16 01:07:47;;;;;;;21.53;20.07;;;15.40;88.00;;;;;;5073684;28;20485;-73
2022/09/16 01:10:17;;;;;;;22.53;21.33;;;15.40;87.90;;;;;;5069821;28;20465;-72
2022/09/16 01:12:47;;;;;;;22.13;20.83;;;15.40;88.10;;;;;;5070606;28;20486;-73
2022/09/16 01:15:16;;;;;;;22.37;21.20;;;15.40;88.00;;;;;;5063659;28;20851;-73
2022/09/16 01:18:02;;;;;;;23.70;22.50;;;15.40;87.90;;;;;;5064210;28;20446;-72
2022/09/16 01:21:01;;;;;;;22.60;21.30;;;15.40;88.00;;;;;;5067517;28;20461;-73
2022/09/16 01:24:08;;;;;;;21.07;19.97;;;15.40;88.20;;;;;;5064059;28;20474;-72
2022/09/16 01:26:54;;;;;;;21.10;19.90;;;15.40;88.40;;;;;;5058370;28;20486;-73
2022/09/16 01:29:46;;;;;;;21.90;20.60;;;15.40;88.10;;;;;;5069902;28;20450;-72
2022/09/16 01:32:20;;;;;;;23.57;21.97;;;15.40;88.00;;;;;;5073434;28;20470;-72
2022/09/16 01:34:56;;;;;;;23.20;21.80;;;15.40;88.20;;;;;;5066082;28;20816;-70
2022/09/16 01:37:33;;;;;;;21.57;20.40;;;15.40;88.30;;;;;;5066056;28;20449;-70
2022/09/16 01:40:07;;;;;;;22.87;21.47;;;15.40;88.40;;;;;;5067638;28;20454;-72
2022/09/16 01:42:40;;;;;;;22.83;21.53;;;15.40;88.60;;;;;;5070838;28;20488;-73
2022/09/16 01:45:16;;;;;;;22.33;21.03;;;15.30;88.60;;;;;;5068352;28;20466;-72
2022/09/16 01:47:52;;;;;;;22.50;21.40;;;15.30;88.40;;;;;;5060371;28;21017;-72
2022/09/16 01:50:24;;;;;;;23.57;22.07;;;15.30;87.50;;;;;;5067856;28;20498;-72
2022/09/16 01:52:59;;;;;;;22.80;21.50;;;15.40;86.60;;;;;;5064223;28;20502;-72
2022/09/16 01:55:31;;;;;;;22.27;21.03;;;15.40;86.40;;;;;;5062381;28;20454;-72
2022/09/16 01:58:02;;;;;;;22.10;21.00;;;15.30;86.40;;;;;;5068051;28;20461;-72
2022/09/16 02:00:30;;;;;;;23.67;22.40;;;15.30;86.50;;;;;;5062405;28;20456;-72
2022/09/16 02:03:02;;;;;;;22.53;21.43;;;15.40;86.40;;;;;;5063673;28;20484;-72
2022/09/16 02:05:33;;;;;;;23.50;22.40;;;15.30;86.20;;;;;;5063530;28;20460;-71
2022/09/16 02:08:04;;;;;;;24.50;22.80;;;15.40;85.90;;;;;;5061920;28;20485;-72
2022/09/16 02:10:35;;;;;;;24.77;23.40;;;15.40;85.20;;;;;;5065178;28;20466;-71
2022/09/16 02:13:08;;;;;;;22.47;21.37;;;15.40;85.10;;;;;;5066799;28;20867;-72
2022/09/16 02:15:35;;;;;;;24.80;23.50;;;15.40;85.10;;;;;;5066480;28;20471;-73
2022/09/16 02:18:09;;;;;;;24.20;23.07;;;15.30;84.70;;;;;;5069970;28;20947;-73
2022/09/16 02:20:41;;;;;;;27.33;25.93;;;15.30;84.90;;;;;;5065700;28;20470;-73
2022/09/16 02:23:13;;;;;;;27.30;25.90;;;15.40;83.60;;;;;;5071099;28;20478;-73
2022/09/16 02:25:44;;;;;;;33.73;32.03;;;15.30;83.90;;;;;;5065719;28;20458;-75
2022/09/16 02:28:17;;;;;;;27.33;25.70;;;15.30;84.00;;;;;;5064424;28;20474;-73
2022/09/16 02:30:48;;;;;;;25.67;24.27;;;15.40;84.10;;;;;;5065320;28;20450;-73
2022/09/16 02:33:17;;;;;;;25.97;24.23;;;15.30;83.60;;;;;;5066961;28;20482;-71
2022/09/16 02:35:48;;;;;;;28.17;26.70;;;15.30;83.30;;;;;;5062959;28;20995;-71
2022/09/16 02:38:17;;;;;;;41.77;39.77;;;15.30;83.00;;;;;;5065958;28;20461;-70
2022/09/16 02:40:50;;;;;;;30.43;28.80;;;15.30;83.40;;;;;;5068406;28;20987;-73
2022/09/16 02:43:18;;;;;;;25.10;23.83;;;15.30;82.90;;;;;;5074183;28;20481;-70
2022/09/16 02:45:49;;;;;;;26.33;24.90;;;15.30;83.80;;;;;;5065395;28;20466;-71
2022/09/16 02:48:26;;;;;;;26.47;24.97;;;15.20;84.50;;;;;;5066577;28;20482;-71
2022/09/16 02:51:00;;;;;;;32.37;30.90;;;15.10;85.10;;;;;;5067000;28;20755;-72
2022/09/16 02:53:37;;;;;;;28.60;25.67;;;15.00;85.60;;;;;;5067227;28;20478;-71
2022/09/16 02:56:11;;;;;;;42.47;40.17;;;15.00;85.50;;;;;;5067016;28;20461;-72
2022/09/16 02:58:38;;;;;;;31.20;29.70;;;15.00;85.50;;;;;;5062033;28;21173;-72
2022/09/16 03:01:05;;;;;;;26.70;25.40;;;15.00;83.70;;;;;;5066416;28;20962;-72
2022/09/16 03:03:34;;;;;;;25.20;23.90;;;15.00;84.10;;;;;;5063775;28;20840;-71
2022/09/16 03:06:14;;;;;;;31.50;30.00;;;15.00;84.00;;;;;;5065429;28;20459;-72
2022/09/16 03:08:41;;;;;;;30.07;28.33;;;15.00;84.40;;;;;;5059062;28;20478;-71
2022/09/16 03:11:21;;;;;;;28.97;27.70;;;15.00;84.60;;;;;;5060431;28;20951;-73
2022/09/16 03:14:01;;;;;;;40.20;38.40;;;15.00;84.30;;;;;;5065866;28;20483;-73
2022/09/16 03:16:34;;;;;;;31.77;30.23;;;15.00;84.30;;;;;;5064461;28;20462;-74
2022/09/16 03:19:13;;;;;;;29.67;28.00;;;15.00;83.90;;;;;;5060151;28;20454;-74
2022/09/16 03:21:48;;;;;;;42.40;40.03;;;15.00;83.90;;;;;;5066503;28;20959;-73
2022/09/16 03:24:23;;;;;;;44.33;42.13;;;15.00;83.80;;;;;;5063656;28;20456;-73
2022/09/16 03:26:59;;;;;;;37.70;35.60;;;15.00;83.50;;;;;;5069703;28;20457;-73
2022/09/16 03:29:33;;;;;;;25.20;23.70;;;15.10;84.60;;;;;;5064289;28;20527;-73
2022/09/16 03:32:06;;;;;;;31.80;30.20;;;15.00;84.90;;;;;;5065612;28;20489;-73
2022/09/16 03:34:38;;;;;;;33.67;31.97;;;15.00;85.40;;;;;;5062933;28;20952;-71
2022/09/16 03:37:09;;;;;;;27.40;26.20;;;14.90;85.30;;;;;;5063464;28;21002;-71
2022/09/16 03:39:38;;;;;;;29.73;28.27;;;14.90;85.50;;;;;;5061371;28;20464;-71
2022/09/16 03:42:09;;;;;;;29.40;27.93;;;14.90;85.90;;;;;;5065330;28;20474;-71
2022/09/16 03:44:39;;;;;;;23.33;22.03;;;14.90;86.40;;;;;;5058882;28;20478;-72
2022/09/16 03:47:07;;;;;;;27.30;25.70;;;14.80;86.60;;;;;;5061850;28;20979;-71
2022/09/16 03:49:36;;;;;;;25.53;23.97;;;14.80;86.70;;;;;;5066597;28;20457;-71
2022/09/16 03:52:04;;;;;;;29.23;27.80;;;14.80;86.70;;;;;;5067615;28;20473;-71
2022/09/16 03:54:31;;;;;;;34.80;32.70;;;14.80;86.60;;;;;;5066412;28;20760;-72
2022/09/16 03:56:59;;;;;;;41.97;39.90;;;14.80;86.50;;;;;;5064190;28;20985;-71
2022/09/16 03:59:27;;;;;;;43.80;41.80;;;14.70;86.90;;;;;;5062123;28;20975;-72
2022/09/16 04:01:54;;;;;;;24.63;23.47;;;14.70;87.30;;;;;;5063630;28;20460;-70
2022/09/16 04:04:21;;;;;;;28.27;26.90;;;14.70;87.40;;;;;;5068826;28;20465;-71
2022/09/16 04:06:49;;;;;;;28.50;27.10;;;14.70;87.60;;;;;;5068765;28;20471;-71
2022/09/16 04:09:16;;;;;;;32.63;30.70;;;14.70;87.60;;;;;;5070956;28;20489;-72
2022/09/16 04:11:44;;;;;;;23.87;22.47;;;14.60;87.80;;;;;;5067786;28;20457;-72
2022/09/16 04:14:10;;;;;;;32.87;31.27;;;14.60;88.10;;;;;;5071485;28;20450;-72
2022/09/16 04:16:37;;;;;;;27.00;25.70;;;14.60;87.60;;;;;;5063802;28;20511;-73
2022/09/16 04:19:05;;;;;;;26.23;24.83;;;14.70;87.40;;;;;;5070666;28;20955;-73
2022/09/16 04:21:32;;;;;;;27.23;26.00;;;14.70;87.20;;;;;;5065805;28;20484;-72
2022/09/16 04:24:01;;;;;;;39.37;37.30;;;14.70;87.00;;;;;;5063248;28;20473;-73
2022/09/16 04:26:27;;;;;;;22.87;21.70;;;14.80;86.80;;;;;;5068579;28;20461;-71
2022/09/16 04:28:55;;;;;;;34.10;32.43;;;14.80;86.30;;;;;;5068159;28;20492;-70
2022/09/16 04:31:22;;;;;;;27.13;25.63;;;14.70;86.80;;;;;;5074187;28;20488;-70
2022/09/16 04:33:49;;;;;;;41.00;39.20;;;14.80;86.90;;;;;;5068830;28;20927;-70
2022/09/16 04:36:18;;;;;;;22.00;20.80;;;14.70;87.20;;;;;;5059670;28;20466;-71
2022/09/16 04:38:47;;;;;;;43.40;41.20;;;14.80;86.90;;;;;;5067713;28;20449;-71
2022/09/16 04:41:18;;;;;;;26.27;25.07;;;14.70;86.40;;;;;;5069681;28;20461;-73
2022/09/16 04:43:45;;;;;;;40.30;38.13;;;14.70;86.10;;;;;;5067610;28;20514;-71
2022/09/16 04:46:13;;;;;;;30.50;29.00;;;14.80;86.00;;;;;;5065060;28;20553;-70
2022/09/16 04:48:40;;;;;;;25.33;23.90;;;14.70;86.90;;;;;;5068690;28;20534;-71
2022/09/16 04:51:10;;;;;;;28.67;26.97;;;14.60;87.70;;;;;;5064726;28;20991;-70
2022/09/16 04:53:38;;;;;;;40.80;38.67;;;14.60;87.80;;;;;;5068159;28;20482;-71
2022/09/16 04:56:08;;;;;;;19.73;18.30;;;14.60;88.00;;;;;;5070697;28;20506;-70
2022/09/16 04:58:37;;;;;;;23.90;22.17;;;14.60;88.10;;;;;;5061785;28;20732;-71
2022/09/16 05:01:05;;;;;;;26.93;25.40;;;14.60;88.00;;;;;;5068194;28;20514;-73
2022/09/16 05:03:33;;;;;;;37.37;35.60;;;14.60;88.50;;;;;;5079499;28;20830;-75
2022/09/16 05:06:10;;;;;;;33.17;31.47;;;14.60;88.70;;;;;;5069478;28;20457;-74
2022/09/16 05:08:37;;;;;;;21.17;20.13;;;14.60;88.90;;;;;;5061396;28;20485;-72
2022/09/16 05:11:06;;;;;;;26.58;25.13;;;14.70;88.90;;;;;;5060844;28;20828;-71
2022/09/16 05:13:33;;;;;;;23.23;22.03;;;14.90;88.50;;;;;;5070163;28;20228;-71
2022/09/16 05:16:07;;;;;;;20.00;19.00;;;14.90;88.00;;;;;;5063661;28;20461;-71
2022/09/16 05:18:35;;;;;;;19.33;18.13;;;14.70;87.90;;;;;;5068666;28;20642;-72
2022/09/16 05:21:04;;;;;;;24.50;23.20;;;14.70;88.10;;;;;;5067888;28;20450;-72
2022/09/16 05:23:31;;;;;;;22.50;21.43;;;14.70;88.40;;;;;;5077790;28;20477;-72
2022/09/16 05:26:04;;;;;;;32.20;30.60;;;14.70;88.60;;;;;;5066794;28;20446;-72
2022/09/16 05:28:31;;;;;;;23.43;22.03;;;14.60;88.90;;;;;;5069098;28;20479;-72
2022/09/16 05:31:12;;;;;;;23.10;21.73;;;14.70;89.00;;;;;;5069379;28;20826;-72
2022/09/16 05:33:40;;;;;;;32.87;31.10;;;14.70;89.10;;;;;;5073686;28;20485;-74
2022/09/16 05:36:08;;;;;;;19.50;18.37;;;14.70;88.90;;;;;;5064287;28;20452;-73
2022/09/16 05:38:35;;;;;;;20.33;19.07;;;14.70;89.80;;;;;;5066353;28;20848;-73
2022/09/16 05:41:03;;;;;;;17.23;15.93;;;14.60;90.40;;;;;;5066109;28;20966;-73
2022/09/16 05:43:30;;;;;;;35.60;33.80;;;14.60;90.40;;;;;;5067563;28;20469;-73
2022/09/16 05:45:57;;;;;;;25.37;23.47;;;14.70;89.70;;;;;;5063434;28;20931;-73
2022/09/16 05:48:26;;;;;;;21.33;19.80;;;14.60;89.90;;;;;;5068533;28;20860;-73
2022/09/16 05:50:53;;;;;;;26.67;25.13;;;14.70;90.00;;;;;;5062718;28;20458;-73
2022/09/16 05:53:20;;;;;;;23.90;22.40;;;14.70;88.80;;;;;;5073337;28;21005;-75
2022/09/16 05:55:55;;;;;;;19.80;18.70;;;14.70;87.90;;;;;;5063732;28;20825;-72
2022/09/16 05:58:22;;;;;;;20.70;19.50;;;14.70;88.20;;;;;;5057659;28;20461;-74
2022/09/16 06:00:49;;;;;;;23.07;21.87;;;14.90;88.40;;;;;;5071384;28;20192;-73
2022/09/16 06:03:16;;;;;;;25.67;24.13;;;14.90;87.40;;;;;;5069005;28;20467;-75
2022/09/16 06:05:44;;;;;;;23.53;22.17;;;14.70;88.40;;;;;;5069790;28;20471;-74
2022/09/16 06:08:11;;;;;;;19.03;17.67;;;14.60;89.40;;;;;;5074230;28;20487;-74
2022/09/16 06:10:42;;;;;;;30.47;28.60;;;14.50;89.40;;;;;;5063423;28;20470;-74
2022/09/16 06:13:09;;;;;;;23.60;22.23;;;14.50;89.40;;;;;;5066949;28;20478;-72
2022/09/16 06:15:36;;;;;;;21.47;20.27;;;14.50;89.20;;;;;;5061086;28;20458;-73
2022/09/16 06:18:03;;;;;;;26.80;25.50;;;14.50;88.80;;;;;;5065556;28;20450;-72
2022/09/16 06:20:30;;;;;;;21.57;20.17;;;14.50;88.70;;;;;;5068275;28;20469;-73
2022/09/16 06:22:59;;;;;;;25.50;24.07;;;14.50;88.30;;;;;;5055610;28;20564;-72
2022/09/16 06:25:26;;;;;;;22.67;21.47;;;14.50;87.20;;;;;;5067567;28;20454;-73
2022/09/16 06:27:53;;;;;;;24.90;23.30;;;14.50;86.20;;;;;;5065592;28;20844;-72
2022/09/16 06:30:20;;;;;;;39.43;37.00;;;14.50;86.30;;;;;;5061842;28;20476;-71
2022/09/16 06:32:46;;;;;;;32.03;29.97;;;14.40;87.40;;;;;;5065297;28;20476;-72
2022/09/16 06:35:13;;;;;;;23.77;22.47;;;14.50;88.80;;;;;;5068780;28;20462;-72
2022/09/16 06:37:40;;;;;;;26.83;25.27;;;14.50;89.50;;;;;;5068456;28;20936;-71
2022/09/16 06:40:09;;;;;;;20.17;18.87;;;14.60;90.20;;;;;;5064777;28;20456;-72
2022/09/16 06:42:36;;;;;;;23.33;21.93;;;14.60;90.10;;;;;;5064844;28;20488;-72
2022/09/16 06:45:04;;;;;;;38.63;36.70;;;14.50;90.20;;;;;;5066531;28;20457;-72
2022/09/16 06:47:32;;;;;;;19.23;18.00;;;14.50;90.70;;;;;;5067854;28;20537;-72
2022/09/16 06:49:58;;;;;;;22.00;20.23;;;14.50;91.20;;;;;;5067854;28;20466;-76
2022/09/16 06:52:26;;;;;;;23.73;21.80;;;14.50;91.60;;;;;;5064718;28;20489;-72
2022/09/16 06:54:53;;;;;;;25.57;24.20;;;14.50;91.10;;;;;;5066526;28;20460;-73
2022/09/16 06:57:22;;;;;;;23.57;22.30;;;14.30;89.70;;;;;;5066088;28;20460;-73
2022/09/16 06:59:49;;;;;;;33.50;31.77;;;14.10;88.40;;;;;;5062849;28;20454;-72
2022/09/16 07:02:16;;;;;;;42.37;40.23;;;13.80;88.30;;;;;;5078647;28;20481;-72
2022/09/16 07:04:43;;;;;;;19.83;18.40;;;13.80;89.20;;;;;;5063246;28;20833;-72
2022/09/16 07:07:10;;;;;;;20.80;19.47;;;14.00;88.90;;;;;;5069049;28;20972;-72
2022/09/16 07:09:37;;;;;;;26.77;25.17;;;14.00;89.10;;;;;;5066690;28;20847;-73
2022/09/16 07:12:04;;;;;;;36.90;34.93;;;14.00;89.50;;;;;;5073944;28;20563;-72
2022/09/16 07:14:32;;;;;;;20.03;18.70;;;14.00;90.10;;;;;;5065873;28;20773;-71
2022/09/16 07:16:59;;;;;;;20.00;18.90;;;14.00;89.30;;;;;;5065054;28;20823;-72
2022/09/16 07:19:27;;;;;;;27.10;25.30;;;14.00;89.80;;;;;;5063337;28;20442;-72
2022/09/16 07:21:53;;;;;;;36.00;34.07;;;14.00;89.70;;;;;;5067127;28;20458;-72
2022/09/16 07:24:20;;;;;;;25.10;23.83;;;14.00;90.00;;;;;;5066624;28;20482;-71
2022/09/16 07:26:47;;;;;;;26.60;25.00;;;13.90;89.90;;;;;;5065707;28;20461;-72
2022/09/16 07:29:16;;;;;;;35.77;33.87;;;13.90;90.20;;;;;;5062305;28;20827;-72
2022/09/16 07:31:44;;;;;;;26.17;24.67;;;14.00;90.30;;;;;;5064363;28;20458;-72
2022/09/16 07:34:13;;;;;;;24.23;22.67;;;13.90;88.50;;;;;;5063275;28;20557;-71
2022/09/16 07:36:43;;;;;;;21.27;20.23;;;13.80;89.40;;;;;;5067163;28;20512;-71
2022/09/16 07:39:12;;;;;;;18.90;17.67;;;13.90;89.20;;;;;;5066390;28;20470;-72
2022/09/16 07:41:41;;;;;;;36.07;34.30;;;14.00;89.10;;;;;;5062636;28;20475;-71
2022/09/16 07:44:11;;;;;;;26.70;25.30;;;14.10;89.20;;;;;;5060524;28;20967;-72
2022/09/16 07:46:38;;;;;;;24.50;22.70;;;14.10;88.90;;;;;;5065912;28;20447;-71
2022/09/16 07:49:08;;;;;;;39.87;37.77;;;14.10;88.90;;;;;;5063629;28;20483;-72
2022/09/16 07:51:35;;;;;;;21.87;20.33;;;14.00;89.00;;;;;;5066213;28;20458;-71
2022/09/16 07:54:04;;;;;;;28.77;27.13;;;14.00;89.80;;;;;;5065484;28;21195;-71
2022/09/16 07:56:33;;;;;;;20.27;19.10;;;14.00;89.90;;;;;;5063727;28;20462;-73
2022/09/16 07:59:01;;;;;;;34.30;32.23;;;13.90;89.70;;;;;;5063813;28;20475;-74
2022/09/16 08:01:29;;;;;;;25.23;23.57;;;14.10;89.80;;;;;;5063463;28;20461;-74
2022/09/16 08:03:57;;;;;;;33.60;31.70;;;14.20;90.20;;;;;;5064377;28;20582;-74
2022/09/16 08:06:27;;;;;;;22.33;20.70;;;14.20;90.50;;;;;;5063540;28;20461;-73
2022/09/16 08:08:56;;;;;;;26.23;24.53;;;14.40;90.10;;;;;;5059480;28;20474;-74
2022/09/16 08:11:23;;;;;;;22.43;21.07;;;14.30;89.60;;;;;;5068042;28;20847;-74
2022/09/16 08:13:50;;;;;;;37.37;34.57;;;14.50;89.90;;;;;;5063598;28;20832;-74
2022/09/16 08:16:19;;;;;;;25.27;23.60;;;14.70;89.50;;;;;;5065968;28;20460;-75
2022/09/16 08:18:47;;;;;;;27.80;25.00;;;14.80;87.90;;;;;;5067917;28;20459;-74
2022/09/16 08:21:16;;;;;;;22.40;20.90;;;15.00;87.00;;;;;;5067117;28;20462;-74
2022/09/16 08:23:44;;;;;;;35.93;33.57;;;15.20;86.60;;;;;;5066867;28;20958;-75
2022/09/16 08:26:13;;;;;;;33.47;31.60;;;15.30;86.00;;;;;;5066585;28;20462;-74
2022/09/16 08:28:41;;;;;;;42.77;40.47;;;15.40;85.90;;;;;;5064453;28;20474;-73
2022/09/16 08:31:09;;;;;;;41.37;39.10;;;15.50;85.20;;;;;;5071532;28;20894;-74
2022/09/16 08:33:38;;;;;;;32.13;30.10;;;15.40;86.20;;;;;;5069172;28;20500;-74
2022/09/16 08:36:07;;;;;;;27.97;26.30;;;15.50;85.60;;;;;;5070414;28;20463;-74
2022/09/16 08:38:35;;;;;;;28.03;24.97;;;15.50;85.80;;;;;;5057797;28;20469;-71
2022/09/16 08:41:13;;;;;;;29.00;27.40;;;15.60;86.30;;;;;;5067104;28;20497;-71
2022/09/16 08:43:47;;;;;;;29.13;27.23;;;15.50;85.10;;;;;;5062211;28;20485;-78
2022/09/16 08:46:19;;;;;;;29.10;27.00;;;15.50;85.10;;;;;;5068526;28;20481;-75
2022/09/16 08:48:56;;;;;;;26.30;24.80;;;15.50;85.00;;;;;;5069836;28;20477;-74
2022/09/16 08:51:23;;;;;;;34.37;28.10;;;15.50;84.70;;;;;;5069086;28;20454;-72
2022/09/16 08:53:56;;;;;;;36.97;35.13;;;15.70;84.80;;;;;;5066255;28;20488;-71
2022/09/16 08:56:28;;;;;;;29.83;28.40;;;15.60;84.40;;;;;;5070351;28;20458;-71
2022/09/16 08:58:57;;;;;;;29.13;27.13;;;15.50;84.60;;;;;;5071789;28;20515;-71
2022/09/16 09:01:31;;;;;;;47.27;40.67;;;15.60;84.90;;;;;;5066164;28;20466;-72
2022/09/16 09:03:59;;;;;;;38.17;34.27;;;15.80;85.50;;;;;;5069396;28;20474;-72
2022/09/16 09:06:48;;;;;;;32.13;29.57;;;15.90;85.50;;;;;;5063485;28;20835;-71
2022/09/16 09:09:27;;;;;;;35.70;33.23;;;16.10;83.90;;;;;;5062062;28;21164;-71
2022/09/16 09:12:01;;;;;;;27.07;25.27;;;16.30;84.20;;;;;;5062407;28;20553;-72
2022/09/16 09:14:38;;;;;;;31.37;29.80;;;16.40;83.30;;;;;;5063168;28;20970;-75
2022/09/16 09:17:16;;;;;;;39.80;37.63;;;16.50;84.10;;;;;;5060948;28;20489;-75
2022/09/16 09:19:55;;;;;;;38.73;36.40;;;16.70;82.80;;;;;;5069732;28;20450;-72
2022/09/16 09:22:33;;;;;;;34.60;32.70;;;16.70;81.30;;;;;;5074120;28;20580;-72
2022/09/16 09:25:18;;;;;;;36.57;34.40;;;16.90;80.80;;;;;;5071023;28;20488;-75
2022/09/16 09:27:54;;;;;;;27.93;26.43;;;17.00;80.20;;;;;;5065346;28;21143;-80
2022/09/16 09:30:23;;;;;;;28.10;26.60;;;16.90;79.90;;;;;;5062964;28;20478;-71
2022/09/16 09:33:16;;;;;;;30.67;29.10;;;16.90;80.00;;;;;;5064031;28;20474;-71
2022/09/16 09:36:01;;;;;;;31.33;29.13;;;16.80;80.70;;;;;;5063402;28;20518;-71
2022/09/16 09:38:50;;;;;;;34.57;32.53;;;16.90;81.40;;;;;;5066106;28;20457;-72
2022/09/16 09:41:21;;;;;;;39.30;37.50;;;16.90;81.60;;;;;;5067396;28;20465;-76
2022/09/16 09:43:54;;;;;;;34.03;32.03;;;17.00;80.80;;;;;;5065469;28;20492;-76
2022/09/16 09:46:28;;;;;;;29.60;28.20;;;17.00;81.00;;;;;;5064561;28;20461;-72
2022/09/16 09:48:59;;;;;;;36.23;34.43;;;17.00;81.10;;;;;;5068329;28;20486;-72
2022/09/16 09:51:30;;;;;;;39.30;37.40;;;17.00;81.10;;;;;;5068556;28;20477;-74
2022/09/16 09:54:02;;;;;;;34.30;32.57;;;17.30;80.60;;;;;;5066303;28;22187;-75
2022/09/16 09:56:33;;;;;;;30.13;28.77;;;17.50;79.40;;;;;;5067484;28;20936;-73
2022/09/16 09:59:16;;;;;;;34.40;32.60;;;17.50;79.30;;;;;;5066349;28;21190;-72
2022/09/16 10:01:43;;;;;;;47.67;44.67;;;17.50;79.60;;;;;;5077417;28;20449;-73
2022/09/16 10:04:14;;;;;;;51.07;47.57;;;17.40;79.70;;;;;;5068549;28;20509;-74
2022/09/16 10:06:42;;;;;;;41.33;39.10;;;17.40;79.30;;;;;;5068144;28;20461;-76
2022/09/16 10:09:14;;;;;;;34.07;32.33;;;17.30;78.00;;;;;;5068684;28;20488;-72
2022/09/16 10:11:47;;;;;;;34.40;32.13;;;17.30;79.10;;;;;;5065047;28;20691;-80
2022/09/16 10:14:24;;;;;;;40.17;38.20;;;17.20;79.10;;;;;;5068022;28;20524;-74
2022/09/16 10:16:52;;;;;;;28.23;26.33;;;17.00;78.60;;;;;;5067890;28;20458;-72
2022/09/16 10:19:22;;;;;;;30.17;28.53;;;17.00;78.90;;;;;;5066067;28;20454;-72
2022/09/16 10:21:52;;;;;;;32.23;30.83;;;16.90;79.60;;;;;;5074164;28;20458;-71
2022/09/16 10:24:33;;;;;;;28.70;27.40;;;16.90;79.60;;;;;;5066792;28;20481;-72
2022/09/16 10:27:03;;;;;;;31.60;29.97;;;16.90;80.50;;;;;;5068126;28;20467;-73
2022/09/16 10:29:31;;;;;;;46.50;44.40;;;16.90;80.50;;;;;;5063863;28;20474;-74
2022/09/16 10:32:13;;;;;;;28.40;26.90;;;16.90;81.20;;;;;;5057881;28;20511;-74
2022/09/16 10:34:41;;;;;;;30.20;28.70;;;16.90;81.30;;;;;;5064233;28;20453;-74
2022/09/16 10:37:17;;;;;;;35.77;34.17;;;17.00;80.70;;;;;;5069193;28;20453;-75
2022/09/16 10:39:50;;;;;;;42.00;40.10;;;17.00;80.70;;;;;;5064439;28;20460;-73
2022/09/16 10:42:25;;;;;;;38.47;36.43;;;17.10;80.30;;;;;;5072710;28;20477;-74
2022/09/16 10:45:01;;;;;;;30.77;29.27;;;17.00;80.20;;;;;;5065693;28;20458;-74
2022/09/16 10:47:32;;;;;;;29.40;28.00;;;17.20;79.60;;;;;;5066801;28;20464;-74
2022/09/16 10:50:02;;;;;;;28.93;27.53;;;17.30;79.60;;;;;;5064217;28;20497;-74
2022/09/16 10:52:30;;;;;;;40.00;38.10;;;17.50;78.40;;;;;;5079382;28;20486;-75
2022/09/16 10:55:09;;;;;;;37.20;35.20;;;17.60;77.80;;;;;;5069411;28;20946;-74
2022/09/16 10:57:40;;;;;;;28.10;26.70;;;17.60;78.30;;;;;;5065985;28;20807;-76
2022/09/16 11:00:13;;;;;;;34.83;33.17;;;17.50;78.50;;;;;;5065870;28;20449;-74
2022/09/16 11:03:11;;;;;;;30.90;29.30;;;17.70;77.70;;;;;;5070116;28;20485;-74
2022/09/16 11:05:51;;;;;;;37.87;36.10;;;17.70;77.40;;;;;;5067287;28;20465;-75
2022/09/16 11:08:27;;;;;;;28.40;27.00;;;17.70;76.70;;;;;;5077875;28;20458;-73
2022/09/16 11:10:59;;;;;;;34.93;33.20;;;17.40;77.00;;;;;;5063944;28;20476;-73
2022/09/16 11:13:38;;;;;;;42.83;40.67;;;17.20;78.40;;;;;;5067291;28;20486;-74
2022/09/16 11:16:24;;;;;;;31.03;29.60;;;17.30;78.70;;;;;;5062698;28;20458;-72
2022/09/16 11:19:00;;;;;;;28.73;27.03;;;17.30;78.60;;;;;;5059346;28;20465;-74
2022/09/16 11:21:45;;;;;;;30.13;28.63;;;17.20;78.60;;;;;;5062005;28;20542;-73
2022/09/16 11:24:30;;;;;;;31.43;29.60;;;17.10;78.20;;;;;;5057308;28;20457;-74
2022/09/16 11:27:07;;;;;;;34.50;32.60;;;17.10;79.10;;;;;;5056468;28;20950;-72
2022/09/16 11:29:57;;;;;;;31.30;29.80;;;17.00;79.80;;;;;;5059693;28;20561;-78
2022/09/16 11:32:35;;;;;;;26.80;25.40;;;17.20;79.00;;;;;;5057168;28;20722;-75
2022/09/16 11:35:26;;;;;;;34.30;32.67;;;17.00;79.10;;;;;;5062163;28;20831;-75
2022/09/16 11:37:59;;;;;;;30.57;28.70;;;17.00;79.00;;;;;;5057675;28;20900;-75
2022/09/16 11:40:45;;;;;;;38.83;37.13;;;17.00;78.20;;;;;;5062522;28;20788;-73
2022/09/16 11:43:44;;;;;;;34.57;32.73;;;17.10;77.50;;;;;;5057639;28;21023;-75
2022/09/16 11:46:19;;;;;;;40.10;38.10;;;17.00;77.70;;;;;;5057125;28;20462;-73
2022/09/16 11:49:01;;;;;;;33.87;31.90;;;17.20;76.60;;;;;;5069372;28;20464;-73
2022/09/16 11:51:41;;;;;;;29.60;27.83;;;17.20;76.00;;;;;;5064920;28;20481;-73
2022/09/16 11:54:41;;;;;;;28.33;27.03;;;17.40;76.90;;;;;;5065835;28;20856;-74
2022/09/16 11:57:13;;;;;;;29.30;27.57;;;17.60;75.80;;;;;;5059372;28;20455;-73
2022/09/16 11:59:55;;;;;;;39.13;36.97;;;18.00;75.20;;;;;;5061394;28;20555;-72
2022/09/16 12:02:27;;;;;;;45.90;43.50;;;18.20;74.70;;;;;;5059023;28;21062;-73
2022/09/16 12:05:01;;;;;;;45.53;43.33;;;18.50;71.80;;;;;;5058325;28;20459;-73
2022/09/16 12:07:34;;;;;;;36.40;34.40;;;18.60;72.50;;;;;;5053083;28;20463;-73
2022/09/16 12:10:08;;;;;;;34.33;32.43;;;18.90;71.20;;;;;;5060792;28;21037;-72
2022/09/16 12:12:43;;;;;;;36.10;34.60;;;19.10;69.90;;;;;;5052981;28;20475;-76
2022/09/16 12:15:18;;;;;;;46.40;44.10;;;19.20;67.60;;;;;;5053608;28;20989;-73
2022/09/16 12:17:52;;;;;;;40.60;38.80;;;19.10;68.20;;;;;;5053672;28;20492;-74
2022/09/16 12:20:25;;;;;;;33.80;32.30;;;19.10;69.10;;;;;;5067810;28;20459;-73
2022/09/16 12:22:56;;;;;;;38.13;36.43;;;19.20;68.30;;;;;;5064396;28;20479;-73
2022/09/16 12:25:27;;;;;;;41.27;39.07;;;19.10;65.30;;;;;;5069694;28;21006;-73
2022/09/16 12:28:00;;;;;;;33.53;31.97;;;18.90;65.30;;;;;;5068028;28;20548;-73
2022/09/16 12:30:30;;;;;;;33.20;31.40;;;18.40;65.90;;;;;;5067487;28;20480;-73
2022/09/16 12:33:05;;;;;;;30.73;29.17;;;18.30;67.80;;;;;;5067378;28;20468;-73
2022/09/16 12:35:37;;;;;;;36.63;34.93;;;18.30;66.30;;;;;;5068673;28;20461;-73
2022/09/16 12:38:05;;;;;;;31.70;30.20;;;18.20;67.60;;;;;;5068955;28;21016;-76
2022/09/16 12:40:40;;;;;;;33.17;31.10;;;18.30;67.80;;;;;;5067858;28;20458;-74
2022/09/16 12:43:24;;;;;;;34.70;32.97;;;18.30;67.50;;;;;;5056182;28;20847;-74
2022/09/16 12:46:33;;;;;;;42.33;39.90;;;18.50;67.10;;;;;;5071346;28;21062;-73
2022/09/16 12:49:32;;;;;;;36.33;33.80;;;18.70;66.80;;;;;;5069382;28;20457;-72
2022/09/16 12:52:17;;;;;;;31.90;29.87;;;18.80;66.60;;;;;;5067774;28;20954;-71